CEB325 RPLL-RPLK
Flight info
| Callsign | CEB325 |
|---|---|
| Flight time | 0h 35m |
| Altitude | 25000 |
| Route | TIMON4V TIMON W15 RAGAY RAGAY1B |
| Aircraft | A21N/M-SDE3FGHIRWY/LB1 |
Departure
| Time | 2026-05-07 14:04 |
|---|---|
| Airport | Ninoy Aquino International Airport (RPLL) |
Arrival
| Time | 2026-05-07 14:40 |
|---|---|
| Airport | Bicol International Airport (RPLK) |
| Time | Latitude | Longitude | Altitude | Speed | Heading |
|---|---|---|---|---|---|
| 2026-05-07 13:37 | 14.51703 | 121.01659 | 82 ft | 0 kts | 225° |
| 2026-05-07 13:50 | 14.51715 | 121.01672 | 82 ft | 2 kts | 224° |
| 2026-05-07 13:51 | 14.51730 | 121.01686 | 82 ft | 2 kts | 225° |
| 2026-05-07 13:51 | 14.51740 | 121.01698 | 82 ft | 2 kts | 220° |
| 2026-05-07 13:51 | 14.51754 | 121.01703 | 82 ft | 2 kts | 181° |
| 2026-05-07 13:51 | 14.51769 | 121.01700 | 82 ft | 2 kts | 150° |
| 2026-05-07 13:52 | 14.51776 | 121.01695 | 82 ft | 1 kts | 133° |
| 2026-05-07 13:52 | 14.51780 | 121.01691 | 82 ft | 0 kts | 134° |
| 2026-05-07 13:56 | 14.51768 | 121.01703 | 82 ft | 6 kts | 135° |
| 2026-05-07 13:56 | 14.51750 | 121.01722 | 82 ft | 10 kts | 135° |
| 2026-05-07 13:56 | 14.51698 | 121.01772 | 82 ft | 10 kts | 148° |
| 2026-05-07 13:57 | 14.51631 | 121.01778 | 82 ft | 10 kts | 208° |
| 2026-05-07 13:57 | 14.51577 | 121.01728 | 82 ft | 10 kts | 225° |
| 2026-05-07 13:57 | 14.51523 | 121.01673 | 82 ft | 11 kts | 224° |
| 2026-05-07 13:57 | 14.51470 | 121.01611 | 82 ft | 11 kts | 252° |
| 2026-05-07 13:58 | 14.51501 | 121.01542 | 82 ft | 11 kts | 316° |
| 2026-05-07 13:58 | 14.51560 | 121.01483 | 82 ft | 12 kts | 315° |
| 2026-05-07 13:58 | 14.51621 | 121.01419 | 82 ft | 13 kts | 315° |
| 2026-05-07 13:58 | 14.51699 | 121.01337 | 82 ft | 16 kts | 315° |
| 2026-05-07 13:59 | 14.51780 | 121.01254 | 82 ft | 16 kts | 315° |
| 2026-05-07 13:59 | 14.51862 | 121.01170 | 82 ft | 16 kts | 314° |
| 2026-05-07 13:59 | 14.51942 | 121.01088 | 82 ft | 16 kts | 315° |
| 2026-05-07 13:59 | 14.52023 | 121.01004 | 82 ft | 16 kts | 315° |
| 2026-05-07 14:00 | 14.52104 | 121.00921 | 82 ft | 16 kts | 314° |
| 2026-05-07 14:00 | 14.52185 | 121.00836 | 82 ft | 16 kts | 314° |
| 2026-05-07 14:00 | 14.52266 | 121.00752 | 82 ft | 16 kts | 315° |
| 2026-05-07 14:00 | 14.52347 | 121.00669 | 82 ft | 16 kts | 315° |
| 2026-05-07 14:01 | 14.52428 | 121.00585 | 82 ft | 16 kts | 314° |
| 2026-05-07 14:01 | 14.52509 | 121.00502 | 82 ft | 16 kts | 314° |
| 2026-05-07 14:01 | 14.52546 | 121.00417 | 82 ft | 10 kts | 265° |
| 2026-05-07 14:01 | 14.52541 | 121.00345 | 82 ft | 2 kts | 265° |
| 2026-05-07 14:02 | 14.52541 | 121.00344 | 82 ft | 0 kts | 265° |
| 2026-05-07 14:02 | 14.52539 | 121.00318 | 82 ft | 9 kts | 267° |
| 2026-05-07 14:02 | 14.52528 | 121.00259 | 82 ft | 6 kts | 213° |
| 2026-05-07 14:03 | 14.52492 | 121.00272 | 82 ft | 6 kts | 135° |
| 2026-05-07 14:03 | 14.52457 | 121.00308 | 82 ft | 8 kts | 134° |
| 2026-05-07 14:03 | 14.52420 | 121.00347 | 82 ft | 0 kts | 134° |
| 2026-05-07 14:04 | 14.52320 | 121.00451 | 82 ft | 58 kts | 135° |
| 2026-05-07 14:04 | 14.51845 | 121.00938 | 82 ft | 130 kts | 134° |
| 2026-05-07 14:04 | 14.51074 | 121.01731 | 255 ft | 171 kts | 133° |
| 2026-05-07 14:04 | 14.50270 | 121.02558 | 1103 ft | 161 kts | 132° |
| 2026-05-07 14:05 | 14.49497 | 121.03348 | 1898 ft | 156 kts | 130° |
| 2026-05-07 14:05 | 14.48751 | 121.04117 | 2485 ft | 147 kts | 130° |
| 2026-05-07 14:05 | 14.48041 | 121.04858 | 2857 ft | 151 kts | 130° |
| 2026-05-07 14:05 | 14.47243 | 121.05699 | 2984 ft | 177 kts | 131° |
| 2026-05-07 14:06 | 14.46305 | 121.06682 | 3023 ft | 209 kts | 131° |
| 2026-05-07 14:06 | 14.45202 | 121.07828 | 2969 ft | 243 kts | 132° |
| 2026-05-07 14:06 | 14.43943 | 121.09174 | 3061 ft | 265 kts | 126° |
| 2026-05-07 14:06 | 14.43070 | 121.10829 | 3720 ft | 264 kts | 106° |
| 2026-05-07 14:07 | 14.42664 | 121.12645 | 4503 ft | 262 kts | 99° |
| 2026-05-07 14:07 | 14.42423 | 121.13997 | 5008 ft | 264 kts | 98° |
| 2026-05-07 14:07 | 14.42099 | 121.15869 | 5699 ft | 267 kts | 98° |
| 2026-05-07 14:07 | 14.41690 | 121.17739 | 6360 ft | 272 kts | 108° |
| 2026-05-07 14:08 | 14.40898 | 121.19518 | 7066 ft | 276 kts | 115° |
| 2026-05-07 14:08 | 14.39996 | 121.21277 | 7758 ft | 278 kts | 115° |
| 2026-05-07 14:08 | 14.39102 | 121.23026 | 8427 ft | 279 kts | 115° |
| 2026-05-07 14:08 | 14.38218 | 121.24794 | 9086 ft | 281 kts | 115° |
| 2026-05-07 14:09 | 14.37340 | 121.26589 | 9702 ft | 283 kts | 114° |
| 2026-05-07 14:09 | 14.36463 | 121.28405 | 10271 ft | 286 kts | 114° |
| 2026-05-07 14:09 | 14.35563 | 121.30284 | 10569 ft | 300 kts | 115° |
| 2026-05-07 14:09 | 14.34611 | 121.32278 | 10828 ft | 315 kts | 115° |
| 2026-05-07 14:10 | 14.33632 | 121.34334 | 11067 ft | 328 kts | 115° |
| 2026-05-07 14:10 | 14.32599 | 121.36504 | 11349 ft | 340 kts | 115° |
| 2026-05-07 14:10 | 14.31564 | 121.38683 | 11803 ft | 345 kts | 115° |
| 2026-05-07 14:10 | 14.30503 | 121.40915 | 12304 ft | 348 kts | 115° |
| 2026-05-07 14:11 | 14.29429 | 121.43173 | 12795 ft | 350 kts | 115° |
| 2026-05-07 14:11 | 14.28359 | 121.45425 | 13278 ft | 353 kts | 115° |
| 2026-05-07 14:11 | 14.27271 | 121.47711 | 13732 ft | 356 kts | 115° |
| 2026-05-07 14:11 | 14.26180 | 121.50004 | 14181 ft | 359 kts | 115° |
| 2026-05-07 14:12 | 14.25076 | 121.52325 | 14618 ft | 362 kts | 115° |
| 2026-05-07 14:12 | 14.23969 | 121.54652 | 15035 ft | 365 kts | 115° |
| 2026-05-07 14:12 | 14.22845 | 121.57016 | 15453 ft | 367 kts | 115° |
| 2026-05-07 14:12 | 14.21721 | 121.59378 | 15858 ft | 370 kts | 115° |
| 2026-05-07 14:13 | 14.20593 | 121.61749 | 16238 ft | 373 kts | 115° |
| 2026-05-07 14:13 | 14.19440 | 121.64173 | 16624 ft | 375 kts | 115° |
| 2026-05-07 14:13 | 14.18295 | 121.66579 | 16987 ft | 378 kts | 115° |
| 2026-05-07 14:13 | 14.17127 | 121.69031 | 17350 ft | 380 kts | 115° |
| 2026-05-07 14:14 | 14.15962 | 121.71480 | 17712 ft | 382 kts | 115° |
| 2026-05-07 14:14 | 14.14800 | 121.73919 | 18076 ft | 385 kts | 115° |
| 2026-05-07 14:14 | 14.13612 | 121.76414 | 18440 ft | 387 kts | 115° |
| 2026-05-07 14:14 | 14.12421 | 121.78914 | 18789 ft | 389 kts | 115° |
| 2026-05-07 14:15 | 14.11230 | 121.81413 | 19138 ft | 391 kts | 115° |
| 2026-05-07 14:15 | 14.10035 | 121.83921 | 19476 ft | 393 kts | 115° |
| 2026-05-07 14:15 | 14.08822 | 121.86465 | 19826 ft | 395 kts | 115° |
| 2026-05-07 14:15 | 14.07605 | 121.89019 | 20163 ft | 397 kts | 115° |
| 2026-05-07 14:16 | 14.06390 | 121.91563 | 20492 ft | 399 kts | 115° |
| 2026-05-07 14:16 | 14.05165 | 121.94125 | 20813 ft | 401 kts | 115° |
| 2026-05-07 14:16 | 14.03903 | 121.96682 | 21127 ft | 404 kts | 116° |
| 2026-05-07 14:16 | 14.02599 | 121.99278 | 21351 ft | 408 kts | 116° |
| 2026-05-07 14:17 | 14.01280 | 122.01903 | 21556 ft | 413 kts | 116° |
| 2026-05-07 14:17 | 13.99971 | 122.04512 | 21846 ft | 415 kts | 116° |
| 2026-05-07 14:17 | 13.98641 | 122.07169 | 22156 ft | 417 kts | 116° |
| 2026-05-07 14:17 | 13.97321 | 122.09810 | 22475 ft | 418 kts | 116° |
| 2026-05-07 14:18 | 13.95996 | 122.12463 | 22860 ft | 417 kts | 116° |
| 2026-05-07 14:18 | 13.94660 | 122.15140 | 23240 ft | 417 kts | 116° |
| 2026-05-07 14:18 | 13.93337 | 122.17786 | 23562 ft | 418 kts | 116° |
| 2026-05-07 14:18 | 13.92007 | 122.20444 | 23849 ft | 419 kts | 116° |
| 2026-05-07 14:19 | 13.90675 | 122.23096 | 24148 ft | 421 kts | 116° |
| 2026-05-07 14:19 | 13.89313 | 122.25808 | 24455 ft | 422 kts | 116° |
| 2026-05-07 14:19 | 13.87952 | 122.28519 | 24747 ft | 424 kts | 116° |
| 2026-05-07 14:19 | 13.86602 | 122.31210 | 24883 ft | 426 kts | 116° |
| 2026-05-07 14:20 | 13.85252 | 122.33901 | 24887 ft | 426 kts | 116° |
| 2026-05-07 14:20 | 13.83894 | 122.36610 | 24885 ft | 426 kts | 116° |
| 2026-05-07 14:20 | 13.82538 | 122.39312 | 24654 ft | 425 kts | 116° |
| 2026-05-07 14:20 | 13.81185 | 122.42009 | 24406 ft | 423 kts | 116° |
| 2026-05-07 14:21 | 13.79839 | 122.44692 | 24160 ft | 420 kts | 116° |
| 2026-05-07 14:21 | 13.78503 | 122.47358 | 23913 ft | 417 kts | 116° |
| 2026-05-07 14:21 | 13.77183 | 122.49987 | 23665 ft | 415 kts | 116° |
| 2026-05-07 14:21 | 13.75853 | 122.52634 | 23424 ft | 414 kts | 116° |
| 2026-05-07 14:22 | 13.74518 | 122.55284 | 23182 ft | 415 kts | 117° |
| 2026-05-07 14:22 | 13.73096 | 122.57848 | 22919 ft | 415 kts | 120° |
| 2026-05-07 14:22 | 13.71519 | 122.60334 | 22533 ft | 415 kts | 123° |
| 2026-05-07 14:22 | 13.69815 | 122.62735 | 22040 ft | 415 kts | 125° |
| 2026-05-07 14:23 | 13.68107 | 122.65086 | 21516 ft | 413 kts | 126° |
| 2026-05-07 14:23 | 13.66377 | 122.67462 | 21080 ft | 408 kts | 126° |
| 2026-05-07 14:23 | 13.64685 | 122.69787 | 20613 ft | 404 kts | 126° |
| 2026-05-07 14:23 | 13.63012 | 122.72089 | 20133 ft | 401 kts | 126° |
| 2026-05-07 14:24 | 13.61352 | 122.74374 | 19650 ft | 398 kts | 125° |
| 2026-05-07 14:24 | 13.59707 | 122.76639 | 19175 ft | 395 kts | 125° |
| 2026-05-07 14:24 | 13.58060 | 122.78907 | 18691 ft | 393 kts | 125° |
| 2026-05-07 14:24 | 13.56420 | 122.81166 | 18208 ft | 390 kts | 125° |
| 2026-05-07 14:25 | 13.54805 | 122.83390 | 17743 ft | 387 kts | 125° |
| 2026-05-07 14:25 | 13.53213 | 122.85581 | 17291 ft | 384 kts | 125° |
| 2026-05-07 14:25 | 13.51624 | 122.87769 | 16830 ft | 381 kts | 125° |
| 2026-05-07 14:25 | 13.50035 | 122.89957 | 16350 ft | 379 kts | 125° |
| 2026-05-07 14:26 | 13.48474 | 122.92107 | 15976 ft | 375 kts | 125° |
| 2026-05-07 14:26 | 13.46904 | 122.94267 | 15868 ft | 375 kts | 125° |
| 2026-05-07 14:26 | 13.45346 | 122.96411 | 15864 ft | 376 kts | 125° |
| 2026-05-07 14:26 | 13.43784 | 122.98560 | 15863 ft | 376 kts | 125° |
| 2026-05-07 14:27 | 13.42224 | 123.00706 | 15863 ft | 376 kts | 125° |
| 2026-05-07 14:27 | 13.40645 | 123.02877 | 15863 ft | 376 kts | 125° |
| 2026-05-07 14:27 | 13.39091 | 123.05009 | 15809 ft | 374 kts | 125° |
| 2026-05-07 14:27 | 13.37538 | 123.07140 | 15270 ft | 377 kts | 125° |
| 2026-05-07 14:28 | 13.35943 | 123.09320 | 14637 ft | 378 kts | 125° |
| 2026-05-07 14:28 | 13.34383 | 123.11454 | 14017 ft | 379 kts | 125° |
| 2026-05-07 14:28 | 13.32799 | 123.13622 | 13386 ft | 379 kts | 125° |
| 2026-05-07 14:28 | 13.31246 | 123.15745 | 12756 ft | 369 kts | 125° |
| 2026-05-07 14:29 | 13.29719 | 123.17831 | 12108 ft | 354 kts | 125° |
| 2026-05-07 14:29 | 13.28276 | 123.19802 | 11472 ft | 341 kts | 125° |
| 2026-05-07 14:29 | 13.26794 | 123.21668 | 10828 ft | 330 kts | 129° |
| 2026-05-07 14:29 | 13.25255 | 123.23332 | 10197 ft | 321 kts | 131° |
| 2026-05-07 14:30 | 13.23711 | 123.24957 | 9553 ft | 312 kts | 131° |
| 2026-05-07 14:30 | 13.22225 | 123.26517 | 8917 ft | 304 kts | 131° |
| 2026-05-07 14:30 | 13.20781 | 123.28033 | 8573 ft | 286 kts | 131° |
| 2026-05-07 14:30 | 13.19413 | 123.29471 | 8373 ft | 281 kts | 131° |
| 2026-05-07 14:31 | 13.18039 | 123.30920 | 8095 ft | 279 kts | 131° |
| 2026-05-07 14:31 | 13.16690 | 123.32343 | 7785 ft | 278 kts | 131° |
| 2026-05-07 14:31 | 13.15338 | 123.33770 | 7451 ft | 278 kts | 131° |
| 2026-05-07 14:31 | 13.13991 | 123.35188 | 7122 ft | 276 kts | 131° |
| 2026-05-07 14:32 | 13.12662 | 123.36588 | 6790 ft | 274 kts | 131° |
| 2026-05-07 14:32 | 13.11325 | 123.37997 | 6452 ft | 273 kts | 131° |
| 2026-05-07 14:32 | 13.10004 | 123.39387 | 6123 ft | 271 kts | 131° |
| 2026-05-07 14:32 | 13.08701 | 123.40760 | 5816 ft | 267 kts | 131° |
| 2026-05-07 14:33 | 13.07413 | 123.42112 | 5578 ft | 261 kts | 130° |
| 2026-05-07 14:33 | 13.06155 | 123.43435 | 5289 ft | 256 kts | 130° |
| 2026-05-07 14:33 | 13.04917 | 123.44736 | 5006 ft | 252 kts | 130° |
| 2026-05-07 14:33 | 13.03715 | 123.46001 | 4636 ft | 246 kts | 130° |
| 2026-05-07 14:34 | 13.02519 | 123.47259 | 4275 ft | 243 kts | 130° |
| 2026-05-07 14:34 | 13.01345 | 123.48492 | 4047 ft | 237 kts | 130° |
| 2026-05-07 14:34 | 13.00223 | 123.49670 | 3955 ft | 225 kts | 130° |
| 2026-05-07 14:34 | 12.99164 | 123.50788 | 3891 ft | 217 kts | 126° |
| 2026-05-07 14:35 | 12.98525 | 123.52142 | 3762 ft | 210 kts | 94° |
| 2026-05-07 14:35 | 12.98747 | 123.53557 | 3670 ft | 196 kts | 66° |
| 2026-05-07 14:35 | 12.99446 | 123.54691 | 3502 ft | 179 kts | 54° |
| 2026-05-07 14:35 | 13.00226 | 123.55611 | 3208 ft | 166 kts | 49° |
| 2026-05-07 14:36 | 13.00984 | 123.56435 | 2963 ft | 150 kts | 49° |
| 2026-05-07 14:36 | 13.01670 | 123.57179 | 2773 ft | 138 kts | 49° |
| 2026-05-07 14:36 | 13.02330 | 123.57903 | 2622 ft | 137 kts | 50° |
| 2026-05-07 14:36 | 13.02969 | 123.58607 | 2453 ft | 137 kts | 50° |
| 2026-05-07 14:37 | 13.03610 | 123.59317 | 2270 ft | 137 kts | 50° |
| 2026-05-07 14:37 | 13.04905 | 123.60750 | 1902 ft | 136 kts | 50° |
| 2026-05-07 14:37 | 13.05543 | 123.61455 | 1727 ft | 135 kts | 49° |
| 2026-05-07 14:38 | 13.06192 | 123.62170 | 1537 ft | 135 kts | 50° |
| 2026-05-07 14:38 | 13.06832 | 123.62877 | 1367 ft | 135 kts | 49° |
| 2026-05-07 14:38 | 13.07464 | 123.63576 | 1179 ft | 134 kts | 49° |
| 2026-05-07 14:38 | 13.08098 | 123.64275 | 1013 ft | 134 kts | 49° |
| 2026-05-07 14:39 | 13.08744 | 123.64964 | 853 ft | 133 kts | 49° |
| 2026-05-07 14:39 | 13.09379 | 123.65670 | 688 ft | 134 kts | 49° |
| 2026-05-07 14:39 | 13.10010 | 123.66371 | 518 ft | 134 kts | 49° |
| 2026-05-07 14:39 | 13.10648 | 123.67078 | 350 ft | 134 kts | 49° |
| 2026-05-07 14:40 | 13.11228 | 123.67725 | 327 ft | 101 kts | 47° |
| 2026-05-07 14:40 | 13.11595 | 123.68127 | 328 ft | 57 kts | 47° |
| 2026-05-07 14:40 | 13.11807 | 123.68362 | 328 ft | 37 kts | 46° |
| 2026-05-07 14:40 | 13.11921 | 123.68540 | 328 ft | 28 kts | 82° |
| 2026-05-07 14:41 | 13.11979 | 123.68649 | 328 ft | 12 kts | 350° |
| 2026-05-07 14:41 | 13.12006 | 123.68581 | 328 ft | 11 kts | 228° |
| 2026-05-07 14:41 | 13.11941 | 123.68553 | 328 ft | 12 kts | 223° |
| 2026-05-07 14:41 | 13.11842 | 123.68404 | 328 ft | 35 kts | 232° |
| 2026-05-07 14:42 | 13.11668 | 123.68209 | 328 ft | 35 kts | 227° |
| 2026-05-07 14:42 | 13.11519 | 123.68043 | 327 ft | 21 kts | 229° |
| 2026-05-07 14:42 | 13.11438 | 123.68057 | 327 ft | 13 kts | 137° |
| 2026-05-07 14:42 | 13.11364 | 123.68100 | 327 ft | 12 kts | 198° |